sensor_id;sensor_type;location;lat;lon;timestamp;P1;durP1;ratioP1;P2;durP2;ratioP2
69765;SDS011;57039;48.014;21.384;2022-12-10T00:00:51;36.20;;;19.95;;
69765;SDS011;57039;48.014;21.384;2022-12-10T00:01:54;39.72;;;20.75;;
69765;SDS011;57039;48.014;21.384;2022-12-10T00:02:57;38.22;;;20.65;;
69765;SDS011;57039;48.014;21.384;2022-12-10T00:04:00;36.17;;;20.35;;
69765;SDS011;57039;48.014;21.384;2022-12-10T00:05:04;34.67;;;19.65;;
69765;SDS011;57039;48.014;21.384;2022-12-10T00:06:09;41.97;;;22.42;;
69765;SDS011;57039;48.014;21.384;2022-12-10T00:07:14;37.75;;;19.33;;
69765;SDS011;57039;48.014;21.384;2022-12-10T00:08:17;37.17;;;21.07;;
69765;SDS011;57039;48.014;21.384;2022-12-10T00:09:20;33.33;;;20.30;;
69765;SDS011;57039;48.014;21.384;2022-12-10T00:10:23;37.20;;;20.10;;
69765;SDS011;57039;48.014;21.384;2022-12-10T00:11:26;39.00;;;19.87;;
69765;SDS011;57039;48.014;21.384;2022-12-10T00:12:29;37.92;;;20.67;;
69765;SDS011;57039;48.014;21.384;2022-12-10T00:13:32;38.65;;;19.77;;
69765;SDS011;57039;48.014;21.384;2022-12-10T00:14:36;35.28;;;19.17;;
69765;SDS011;57039;48.014;21.384;2022-12-10T00:15:39;35.67;;;20.25;;
69765;SDS011;57039;48.014;21.384;2022-12-10T00:16:41;38.60;;;20.15;;
69765;SDS011;57039;48.014;21.384;2022-12-10T00:17:45;35.75;;;19.83;;
69765;SDS011;57039;48.014;21.384;2022-12-10T00:18:47;35.27;;;19.07;;
69765;SDS011;57039;48.014;21.384;2022-12-10T00:19:51;36.00;;;19.23;;
69765;SDS011;57039;48.014;21.384;2022-12-10T00:20:53;38.25;;;19.83;;
69765;SDS011;57039;48.014;21.384;2022-12-10T00:21:56;36.45;;;19.10;;
69765;SDS011;57039;48.014;21.384;2022-12-10T00:22:59;36.05;;;19.42;;
69765;SDS011;57039;48.014;21.384;2022-12-10T00:24:02;39.30;;;19.15;;
69765;SDS011;57039;48.014;21.384;2022-12-10T00:25:06;37.10;;;18.40;;
69765;SDS011;57039;48.014;21.384;2022-12-10T00:26:10;34.85;;;18.92;;
69765;SDS011;57039;48.014;21.384;2022-12-10T00:27:18;32.67;;;17.73;;
69765;SDS011;57039;48.014;21.384;2022-12-10T00:28:21;38.22;;;19.12;;
69765;SDS011;57039;48.014;21.384;2022-12-10T00:29:24;38.40;;;17.50;;
69765;SDS011;57039;48.014;21.384;2022-12-10T00:30:27;31.40;;;18.00;;
69765;SDS011;57039;48.014;21.384;2022-12-10T00:31:31;35.90;;;18.50;;
69765;SDS011;57039;48.014;21.384;2022-12-10T00:32:35;33.65;;;18.42;;
69765;SDS011;57039;48.014;21.384;2022-12-10T00:33:38;34.40;;;18.30;;
69765;SDS011;57039;48.014;21.384;2022-12-10T00:34:41;32.58;;;17.52;;
69765;SDS011;57039;48.014;21.384;2022-12-10T00:35:44;35.97;;;17.40;;
69765;SDS011;57039;48.014;21.384;2022-12-10T00:36:47;31.65;;;18.02;;
69765;SDS011;57039;48.014;21.384;2022-12-10T00:37:51;30.33;;;16.77;;
69765;SDS011;57039;48.014;21.384;2022-12-10T00:38:54;30.67;;;15.93;;
69765;SDS011;57039;48.014;21.384;2022-12-10T00:39:57;38.30;;;15.80;;
69765;SDS011;57039;48.014;21.384;2022-12-10T00:41:00;30.57;;;15.47;;
69765;SDS011;57039;48.014;21.384;2022-12-10T00:42:03;44.50;;;21.27;;
69765;SDS011;57039;48.014;21.384;2022-12-10T00:43:05;41.03;;;22.02;;
69765;SDS011;57039;48.014;21.384;2022-12-10T00:44:08;56.72;;;26.95;;
69765;SDS011;57039;48.014;21.384;2022-12-10T00:45:12;112.55;;;54.80;;
69765;SDS011;57039;48.014;21.384;2022-12-10T00:46:16;62.33;;;29.70;;
69765;SDS011;57039;48.014;21.384;2022-12-10T00:47:19;75.40;;;34.78;;
69765;SDS011;57039;48.014;21.384;2022-12-10T00:48:22;35.13;;;17.17;;
69765;SDS011;57039;48.014;21.384;2022-12-10T00:49:26;46.05;;;23.73;;
69765;SDS011;57039;48.014;21.384;2022-12-10T00:50:29;69.73;;;33.83;;
69765;SDS011;57039;48.014;21.384;2022-12-10T00:51:32;58.13;;;28.07;;
69765;SDS011;57039;48.014;21.384;2022-12-10T00:52:35;58.50;;;28.10;;
69765;SDS011;57039;48.014;21.384;2022-12-10T00:53:38;58.25;;;27.50;;
69765;SDS011;57039;48.014;21.384;2022-12-10T00:54:42;35.88;;;17.90;;
69765;SDS011;57039;48.014;21.384;2022-12-10T00:55:45;36.20;;;18.12;;
69765;SDS011;57039;48.014;21.384;2022-12-10T00:56:48;39.40;;;19.85;;
69765;SDS011;57039;48.014;21.384;2022-12-10T00:57:51;48.83;;;24.37;;
69765;SDS011;57039;48.014;21.384;2022-12-10T00:58:53;32.60;;;13.07;;
69765;SDS011;57039;48.014;21.384;2022-12-10T00:59:56;25.70;;;10.95;;
69765;SDS011;57039;48.014;21.384;2022-12-10T01:01:33;23.17;;;7.90;;
69765;SDS011;57039;48.014;21.384;2022-12-10T01:02:39;27.30;;;14.43;;
69765;SDS011;57039;48.014;21.384;2022-12-10T01:03:42;26.80;;;11.75;;
69765;SDS011;57039;48.014;21.384;2022-12-10T01:04:46;28.85;;;10.45;;
69765;SDS011;57039;48.014;21.384;2022-12-10T01:05:49;30.37;;;15.48;;
69765;SDS011;57039;48.014;21.384;2022-12-10T01:06:52;23.00;;;9.15;;
69765;SDS011;57039;48.014;21.384;2022-12-10T01:07:57;35.50;;;18.65;;
69765;SDS011;57039;48.014;21.384;2022-12-10T01:09:01;29.58;;;11.20;;
69765;SDS011;57039;48.014;21.384;2022-12-10T01:10:05;26.65;;;11.38;;
69765;SDS011;57039;48.014;21.384;2022-12-10T01:11:10;22.50;;;11.52;;
69765;SDS011;57039;48.014;21.384;2022-12-10T01:12:14;27.60;;;8.53;;
69765;SDS011;57039;48.014;21.384;2022-12-10T01:13:17;20.17;;;7.57;;
69765;SDS011;57039;48.014;21.384;2022-12-10T01:14:21;21.92;;;7.90;;
69765;SDS011;57039;48.014;21.384;2022-12-10T01:15:26;22.20;;;8.35;;
69765;SDS011;57039;48.014;21.384;2022-12-10T01:16:29;22.27;;;8.65;;
69765;SDS011;57039;48.014;21.384;2022-12-10T01:17:32;27.33;;;10.18;;
69765;SDS011;57039;48.014;21.384;2022-12-10T01:18:35;23.00;;;9.88;;
69765;SDS011;57039;48.014;21.384;2022-12-10T01:19:38;26.27;;;9.20;;
69765;SDS011;57039;48.014;21.384;2022-12-10T01:20:40;24.92;;;8.90;;
69765;SDS011;57039;48.014;21.384;2022-12-10T01:21:43;26.90;;;11.85;;
69765;SDS011;57039;48.014;21.384;2022-12-10T01:22:46;19.30;;;9.03;;
69765;SDS011;57039;48.014;21.384;2022-12-10T01:23:49;22.90;;;7.97;;
69765;SDS011;57039;48.014;21.384;2022-12-10T01:24:53;22.87;;;8.85;;
69765;SDS011;57039;48.014;21.384;2022-12-10T01:25:58;25.77;;;7.70;;
69765;SDS011;57039;48.014;21.384;2022-12-10T01:27:02;17.45;;;8.18;;
69765;SDS011;57039;48.014;21.384;2022-12-10T01:28:05;22.77;;;8.27;;
69765;SDS011;57039;48.014;21.384;2022-12-10T01:29:09;22.80;;;7.97;;
69765;SDS011;57039;48.014;21.384;2022-12-10T01:30:14;22.33;;;8.57;;
69765;SDS011;57039;48.014;21.384;2022-12-10T01:31:18;19.77;;;7.75;;
69765;SDS011;57039;48.014;21.384;2022-12-10T01:32:26;22.08;;;8.07;;
69765;SDS011;57039;48.014;21.384;2022-12-10T01:33:29;26.60;;;8.67;;
69765;SDS011;57039;48.014;21.384;2022-12-10T01:34:37;18.53;;;7.87;;
69765;SDS011;57039;48.014;21.384;2022-12-10T01:35:40;20.23;;;8.18;;
69765;SDS011;57039;48.014;21.384;2022-12-10T01:36:44;19.58;;;8.00;;
69765;SDS011;57039;48.014;21.384;2022-12-10T01:37:50;24.20;;;8.57;;
69765;SDS011;57039;48.014;21.384;2022-12-10T01:38:53;26.90;;;13.73;;
69765;SDS011;57039;48.014;21.384;2022-12-10T01:39:56;38.95;;;18.70;;
69765;SDS011;57039;48.014;21.384;2022-12-10T01:40:59;17.33;;;8.75;;
69765;SDS011;57039;48.014;21.384;2022-12-10T01:42:03;29.50;;;12.55;;
69765;SDS011;57039;48.014;21.384;2022-12-10T01:43:09;20.02;;;8.43;;
69765;SDS011;57039;48.014;21.384;2022-12-10T01:45:19;19.80;;;7.70;;
69765;SDS011;57039;48.014;21.384;2022-12-10T01:46:23;20.60;;;7.82;;
69765;SDS011;57039;48.014;21.384;2022-12-10T01:47:30;26.12;;;13.65;;
69765;SDS011;57039;48.014;21.384;2022-12-10T01:48:34;20.73;;;8.77;;
69765;SDS011;57039;48.014;21.384;2022-12-10T01:49:38;25.25;;;11.68;;
69765;SDS011;57039;48.014;21.384;2022-12-10T01:50:42;27.20;;;8.73;;
69765;SDS011;57039;48.014;21.384;2022-12-10T01:51:46;19.25;;;8.25;;
69765;SDS011;57039;48.014;21.384;2022-12-10T01:52:51;34.33;;;15.73;;
69765;SDS011;57039;48.014;21.384;2022-12-10T01:53:54;25.30;;;11.18;;
69765;SDS011;57039;48.014;21.384;2022-12-10T01:54:57;21.97;;;8.37;;
69765;SDS011;57039;48.014;21.384;2022-12-10T01:56:00;60.63;;;27.30;;
69765;SDS011;57039;48.014;21.384;2022-12-10T01:57:05;22.50;;;8.60;;
69765;SDS011;57039;48.014;21.384;2022-12-10T01:58:11;20.62;;;8.80;;
69765;SDS011;57039;48.014;21.384;2022-12-10T01:59:15;28.70;;;8.57;;
69765;SDS011;57039;48.014;21.384;2022-12-10T02:00:18;20.95;;;9.05;;
69765;SDS011;57039;48.014;21.384;2022-12-10T02:02:51;23.12;;;7.85;;
69765;SDS011;57039;48.014;21.384;2022-12-10T02:04:15;22.65;;;8.82;;
69765;SDS011;57039;48.014;21.384;2022-12-10T02:05:28;20.67;;;8.70;;
69765;SDS011;57039;48.014;21.384;2022-12-10T02:08:16;30.03;;;14.17;;
69765;SDS011;57039;48.014;21.384;2022-12-10T02:09:35;31.60;;;13.32;;
69765;SDS011;57039;48.014;21.384;2022-12-10T02:12:25;20.62;;;8.07;;
69765;SDS011;57039;48.014;21.384;2022-12-10T02:13:38;31.12;;;13.18;;
69765;SDS011;57039;48.014;21.384;2022-12-10T02:14:51;32.40;;;14.23;;
69765;SDS011;57039;48.014;21.384;2022-12-10T02:16:00;18.83;;;7.87;;
69765;SDS011;57039;48.014;21.384;2022-12-10T02:17:14;22.02;;;8.32;;
69765;SDS011;57039;48.014;21.384;2022-12-10T02:18:30;32.70;;;14.40;;
69765;SDS011;57039;48.014;21.384;2022-12-10T02:19:42;22.53;;;9.30;;
69765;SDS011;57039;48.014;21.384;2022-12-10T02:20:51;22.80;;;8.70;;
69765;SDS011;57039;48.014;21.384;2022-12-10T02:21:59;27.00;;;11.00;;
69765;SDS011;57039;48.014;21.384;2022-12-10T02:23:11;21.83;;;7.85;;
69765;SDS011;57039;48.014;21.384;2022-12-10T02:24:25;21.92;;;8.50;;
69765;SDS011;57039;48.014;21.384;2022-12-10T02:25:36;19.02;;;8.55;;
69765;SDS011;57039;48.014;21.384;2022-12-10T02:27:09;25.85;;;8.82;;
69765;SDS011;57039;48.014;21.384;2022-12-10T02:29:19;23.23;;;9.60;;
69765;SDS011;57039;48.014;21.384;2022-12-10T02:30:28;24.52;;;8.63;;
69765;SDS011;57039;48.014;21.384;2022-12-10T02:31:34;22.27;;;8.57;;
69765;SDS011;57039;48.014;21.384;2022-12-10T02:32:39;24.00;;;9.47;;
69765;SDS011;57039;48.014;21.384;2022-12-10T02:33:46;19.77;;;8.95;;
69765;SDS011;57039;48.014;21.384;2022-12-10T02:34:54;25.40;;;10.20;;
69765;SDS011;57039;48.014;21.384;2022-12-10T02:35:59;21.27;;;8.30;;
69765;SDS011;57039;48.014;21.384;2022-12-10T02:37:06;23.87;;;8.70;;
69765;SDS011;57039;48.014;21.384;2022-12-10T02:38:29;20.37;;;9.45;;
69765;SDS011;57039;48.014;21.384;2022-12-10T02:39:36;23.20;;;8.73;;
69765;SDS011;57039;48.014;21.384;2022-12-10T02:40:46;25.58;;;10.48;;
69765;SDS011;57039;48.014;21.384;2022-12-10T02:41:54;27.48;;;12.95;;
69765;SDS011;57039;48.014;21.384;2022-12-10T02:42:58;27.20;;;10.27;;
69765;SDS011;57039;48.014;21.384;2022-12-10T02:44:02;36.43;;;18.67;;
69765;SDS011;57039;48.014;21.384;2022-12-10T02:45:09;29.73;;;13.88;;
69765;SDS011;57039;48.014;21.384;2022-12-10T02:46:14;22.52;;;10.40;;
69765;SDS011;57039;48.014;21.384;2022-12-10T02:47:18;34.08;;;14.02;;
69765;SDS011;57039;48.014;21.384;2022-12-10T02:48:22;39.83;;;19.42;;
69765;SDS011;57039;48.014;21.384;2022-12-10T02:49:26;31.05;;;13.35;;
69765;SDS011;57039;48.014;21.384;2022-12-10T02:50:33;31.33;;;13.18;;
69765;SDS011;57039;48.014;21.384;2022-12-10T02:51:37;20.27;;;10.55;;
69765;SDS011;57039;48.014;21.384;2022-12-10T02:52:39;21.37;;;10.75;;
69765;SDS011;57039;48.014;21.384;2022-12-10T02:53:43;21.53;;;10.13;;
69765;SDS011;57039;48.014;21.384;2022-12-10T02:54:47;23.27;;;9.70;;
69765;SDS011;57039;48.014;21.384;2022-12-10T03:04:09;27.08;;;8.80;;
69765;SDS011;57039;48.014;21.384;2022-12-10T03:05:40;31.75;;;8.90;;
69765;SDS011;57039;48.014;21.384;2022-12-10T03:06:52;32.00;;;16.70;;
69765;SDS011;57039;48.014;21.384;2022-12-10T03:08:18;24.60;;;9.03;;
69765;SDS011;57039;48.014;21.384;2022-12-10T03:09:31;24.58;;;8.88;;
69765;SDS011;57039;48.014;21.384;2022-12-10T03:11:44;27.08;;;12.85;;
69765;SDS011;57039;48.014;21.384;2022-12-10T03:12:50;45.33;;;19.42;;
69765;SDS011;57039;48.014;21.384;2022-12-10T03:14:11;39.60;;;15.35;;
69765;SDS011;57039;48.014;21.384;2022-12-10T03:15:18;21.83;;;9.65;;
69765;SDS011;57039;48.014;21.384;2022-12-10T03:16:23;56.85;;;27.02;;
69765;SDS011;57039;48.014;21.384;2022-12-10T03:17:28;55.50;;;25.88;;
69765;SDS011;57039;48.014;21.384;2022-12-10T03:18:34;33.50;;;14.93;;
69765;SDS011;57039;48.014;21.384;2022-12-10T03:19:41;53.30;;;22.40;;
69765;SDS011;57039;48.014;21.384;2022-12-10T03:20:47;53.28;;;22.73;;
69765;SDS011;57039;48.014;21.384;2022-12-10T03:21:53;27.55;;;11.30;;
69765;SDS011;57039;48.014;21.384;2022-12-10T03:22:59;19.83;;;8.80;;
69765;SDS011;57039;48.014;21.384;2022-12-10T03:24:02;22.83;;;9.52;;
69765;SDS011;57039;48.014;21.384;2022-12-10T03:25:06;28.60;;;10.10;;
69765;SDS011;57039;48.014;21.384;2022-12-10T03:26:10;22.05;;;9.13;;
69765;SDS011;57039;48.014;21.384;2022-12-10T03:27:14;22.30;;;9.63;;
69765;SDS011;57039;48.014;21.384;2022-12-10T03:28:20;32.75;;;15.05;;
69765;SDS011;57039;48.014;21.384;2022-12-10T03:29:26;21.73;;;9.97;;
69765;SDS011;57039;48.014;21.384;2022-12-10T03:30:33;24.37;;;9.43;;
69765;SDS011;57039;48.014;21.384;2022-12-10T03:31:39;33.65;;;17.77;;
69765;SDS011;57039;48.014;21.384;2022-12-10T03:32:44;31.35;;;10.77;;
69765;SDS011;57039;48.014;21.384;2022-12-10T03:33:48;24.25;;;10.32;;
69765;SDS011;57039;48.014;21.384;2022-12-10T03:34:51;38.72;;;15.25;;
69765;SDS011;57039;48.014;21.384;2022-12-10T03:35:56;25.58;;;9.68;;
69765;SDS011;57039;48.014;21.384;2022-12-10T03:36:59;26.62;;;12.15;;
69765;SDS011;57039;48.014;21.384;2022-12-10T03:38:03;25.48;;;10.13;;
69765;SDS011;57039;48.014;21.384;2022-12-10T03:39:06;33.65;;;13.68;;
69765;SDS011;57039;48.014;21.384;2022-12-10T03:40:10;23.73;;;9.37;;
69765;SDS011;57039;48.014;21.384;2022-12-10T03:41:14;27.50;;;10.60;;
69765;SDS011;57039;48.014;21.384;2022-12-10T03:42:17;20.37;;;8.82;;
69765;SDS011;57039;48.014;21.384;2022-12-10T03:43:20;31.50;;;15.02;;
69765;SDS011;57039;48.014;21.384;2022-12-10T03:44:35;20.08;;;9.02;;
69765;SDS011;57039;48.014;21.384;2022-12-10T03:45:40;22.70;;;9.30;;
69765;SDS011;57039;48.014;21.384;2022-12-10T03:46:43;21.10;;;9.88;;
69765;SDS011;57039;48.014;21.384;2022-12-10T03:47:46;27.27;;;9.85;;
69765;SDS011;57039;48.014;21.384;2022-12-10T03:48:49;25.98;;;10.68;;
69765;SDS011;57039;48.014;21.384;2022-12-10T03:49:53;22.27;;;9.35;;
69765;SDS011;57039;48.014;21.384;2022-12-10T03:50:59;32.73;;;10.07;;
69765;SDS011;57039;48.014;21.384;2022-12-10T03:52:02;25.30;;;8.70;;
69765;SDS011;57039;48.014;21.384;2022-12-10T03:53:06;20.70;;;8.63;;
69765;SDS011;57039;48.014;21.384;2022-12-10T03:54:09;25.90;;;11.07;;
69765;SDS011;57039;48.014;21.384;2022-12-10T03:55:11;28.12;;;11.50;;
69765;SDS011;57039;48.014;21.384;2022-12-10T03:56:14;26.50;;;10.77;;
69765;SDS011;57039;48.014;21.384;2022-12-10T03:57:17;20.40;;;9.07;;
69765;SDS011;57039;48.014;21.384;2022-12-10T03:58:21;23.62;;;10.60;;
69765;SDS011;57039;48.014;21.384;2022-12-10T03:59:24;31.48;;;14.85;;
69765;SDS011;57039;48.014;21.384;2022-12-10T04:00:26;25.33;;;11.27;;
69765;SDS011;57039;48.014;21.384;2022-12-10T04:01:29;30.63;;;12.33;;
69765;SDS011;57039;48.014;21.384;2022-12-10T04:02:32;28.73;;;10.67;;
69765;SDS011;57039;48.014;21.384;2022-12-10T04:03:35;23.95;;;11.35;;
69765;SDS011;57039;48.014;21.384;2022-12-10T04:04:39;22.90;;;10.63;;
69765;SDS011;57039;48.014;21.384;2022-12-10T04:05:43;28.62;;;9.57;;
69765;SDS011;57039;48.014;21.384;2022-12-10T04:06:46;23.92;;;10.40;;
69765;SDS011;57039;48.014;21.384;2022-12-10T04:07:48;24.90;;;11.88;;
69765;SDS011;57039;48.014;21.384;2022-12-10T04:08:52;30.85;;;14.95;;
69765;SDS011;57039;48.014;21.384;2022-12-10T04:10:00;26.08;;;10.68;;
69765;SDS011;57039;48.014;21.384;2022-12-10T04:11:07;23.75;;;9.60;;
69765;SDS011;57039;48.014;21.384;2022-12-10T04:12:11;25.53;;;9.53;;
69765;SDS011;57039;48.014;21.384;2022-12-10T04:13:14;22.53;;;9.80;;
69765;SDS011;57039;48.014;21.384;2022-12-10T04:14:35;29.83;;;13.25;;
69765;SDS011;57039;48.014;21.384;2022-12-10T04:15:57;22.20;;;10.30;;
69765;SDS011;57039;48.014;21.384;2022-12-10T04:17:18;24.48;;;11.30;;
69765;SDS011;57039;48.014;21.384;2022-12-10T04:18:22;24.77;;;9.85;;
69765;SDS011;57039;48.014;21.384;2022-12-10T04:19:24;25.80;;;10.38;;
69765;SDS011;57039;48.014;21.384;2022-12-10T04:20:27;26.40;;;10.65;;
69765;SDS011;57039;48.014;21.384;2022-12-10T04:21:48;24.77;;;10.13;;
69765;SDS011;57039;48.014;21.384;2022-12-10T04:23:10;25.62;;;12.07;;
69765;SDS011;57039;48.014;21.384;2022-12-10T04:24:32;28.10;;;10.53;;
69765;SDS011;57039;48.014;21.384;2022-12-10T04:25:55;30.43;;;11.57;;
69765;SDS011;57039;48.014;21.384;2022-12-10T04:27:26;36.80;;;12.18;;
69765;SDS011;57039;48.014;21.384;2022-12-10T04:28:32;20.42;;;10.60;;
69765;SDS011;57039;48.014;21.384;2022-12-10T04:29:34;29.63;;;11.10;;
69765;SDS011;57039;48.014;21.384;2022-12-10T04:30:37;30.30;;;12.15;;
69765;SDS011;57039;48.014;21.384;2022-12-10T04:31:40;31.73;;;13.80;;
69765;SDS011;57039;48.014;21.384;2022-12-10T04:32:42;40.80;;;18.58;;
69765;SDS011;57039;48.014;21.384;2022-12-10T04:33:45;27.65;;;11.55;;
69765;SDS011;57039;48.014;21.384;2022-12-10T04:34:48;26.00;;;11.77;;
69765;SDS011;57039;48.014;21.384;2022-12-10T04:35:51;28.67;;;12.63;;
69765;SDS011;57039;48.014;21.384;2022-12-10T04:36:54;34.17;;;11.47;;
69765;SDS011;57039;48.014;21.384;2022-12-10T04:37:57;26.05;;;12.02;;
69765;SDS011;57039;48.014;21.384;2022-12-10T04:39:00;23.85;;;10.90;;
69765;SDS011;57039;48.014;21.384;2022-12-10T04:40:03;28.08;;;11.77;;
69765;SDS011;57039;48.014;21.384;2022-12-10T04:41:07;31.75;;;14.95;;
69765;SDS011;57039;48.014;21.384;2022-12-10T04:42:18;29.92;;;12.32;;
69765;SDS011;57039;48.014;21.384;2022-12-10T04:43:22;30.95;;;12.50;;
69765;SDS011;57039;48.014;21.384;2022-12-10T04:44:25;27.55;;;11.10;;
69765;SDS011;57039;48.014;21.384;2022-12-10T04:45:28;25.67;;;12.35;;
69765;SDS011;57039;48.014;21.384;2022-12-10T04:46:31;31.63;;;12.40;;
69765;SDS011;57039;48.014;21.384;2022-12-10T04:47:34;29.77;;;13.00;;
69765;SDS011;57039;48.014;21.384;2022-12-10T04:48:37;27.42;;;12.02;;
69765;SDS011;57039;48.014;21.384;2022-12-10T04:49:40;26.48;;;11.43;;
69765;SDS011;57039;48.014;21.384;2022-12-10T04:50:42;30.77;;;13.00;;
69765;SDS011;57039;48.014;21.384;2022-12-10T04:51:45;26.00;;;11.77;;
69765;SDS011;57039;48.014;21.384;2022-12-10T04:52:48;28.85;;;13.20;;
69765;SDS011;57039;48.014;21.384;2022-12-10T04:53:51;29.70;;;13.13;;
69765;SDS011;57039;48.014;21.384;2022-12-10T04:54:54;27.98;;;13.25;;
69765;SDS011;57039;48.014;21.384;2022-12-10T04:55:56;43.17;;;15.63;;
69765;SDS011;57039;48.014;21.384;2022-12-10T04:56:59;34.83;;;13.30;;
69765;SDS011;57039;48.014;21.384;2022-12-10T04:58:04;35.60;;;13.93;;
69765;SDS011;57039;48.014;21.384;2022-12-10T04:59:07;33.10;;;13.50;;
69765;SDS011;57039;48.014;21.384;2022-12-10T05:00:11;34.33;;;13.90;;
69765;SDS011;57039;48.014;21.384;2022-12-10T05:01:14;65.93;;;28.90;;
69765;SDS011;57039;48.014;21.384;2022-12-10T05:02:17;90.53;;;34.78;;
69765;SDS011;57039;48.014;21.384;2022-12-10T05:03:20;32.72;;;15.27;;
69765;SDS011;57039;48.014;21.384;2022-12-10T05:04:24;43.13;;;19.52;;
69765;SDS011;57039;48.014;21.384;2022-12-10T05:05:27;37.95;;;14.68;;
69765;SDS011;57039;48.014;21.384;2022-12-10T05:06:30;35.05;;;15.40;;
69765;SDS011;57039;48.014;21.384;2022-12-10T05:07:33;33.57;;;14.63;;
69765;SDS011;57039;48.014;21.384;2022-12-10T05:08:36;35.60;;;16.20;;
69765;SDS011;57039;48.014;21.384;2022-12-10T05:09:40;37.63;;;16.12;;
69765;SDS011;57039;48.014;21.384;2022-12-10T05:10:43;31.80;;;13.95;;
69765;SDS011;57039;48.014;21.384;2022-12-10T05:11:47;41.03;;;17.80;;
69765;SDS011;57039;48.014;21.384;2022-12-10T05:12:49;33.83;;;14.35;;
69765;SDS011;57039;48.014;21.384;2022-12-10T05:13:52;33.72;;;13.38;;
69765;SDS011;57039;48.014;21.384;2022-12-10T05:14:56;38.72;;;15.18;;
69765;SDS011;57039;48.014;21.384;2022-12-10T05:16:02;30.40;;;14.20;;
69765;SDS011;57039;48.014;21.384;2022-12-10T05:17:09;33.30;;;14.52;;
69765;SDS011;57039;48.014;21.384;2022-12-10T05:18:11;45.50;;;18.23;;
69765;SDS011;57039;48.014;21.384;2022-12-10T05:19:14;39.43;;;15.63;;
69765;SDS011;57039;48.014;21.384;2022-12-10T05:20:17;40.20;;;18.55;;
69765;SDS011;57039;48.014;21.384;2022-12-10T05:21:20;31.67;;;15.40;;
69765;SDS011;57039;48.014;21.384;2022-12-10T05:22:25;33.60;;;15.43;;
69765;SDS011;57039;48.014;21.384;2022-12-10T05:23:47;29.10;;;14.65;;
69765;SDS011;57039;48.014;21.384;2022-12-10T05:24:51;32.40;;;13.77;;
69765;SDS011;57039;48.014;21.384;2022-12-10T05:26:11;30.40;;;13.65;;
69765;SDS011;57039;48.014;21.384;2022-12-10T05:27:16;33.33;;;14.35;;
69765;SDS011;57039;48.014;21.384;2022-12-10T05:28:20;33.25;;;15.02;;
69765;SDS011;57039;48.014;21.384;2022-12-10T05:29:23;31.80;;;13.57;;
69765;SDS011;57039;48.014;21.384;2022-12-10T05:30:26;43.47;;;18.63;;
69765;SDS011;57039;48.014;21.384;2022-12-10T05:31:29;37.22;;;14.95;;
69765;SDS011;57039;48.014;21.384;2022-12-10T05:32:33;33.85;;;14.55;;
69765;SDS011;57039;48.014;21.384;2022-12-10T05:33:36;36.08;;;14.93;;
69765;SDS011;57039;48.014;21.384;2022-12-10T05:34:38;46.90;;;18.40;;
69765;SDS011;57039;48.014;21.384;2022-12-10T05:35:41;45.17;;;19.42;;
69765;SDS011;57039;48.014;21.384;2022-12-10T05:36:44;40.25;;;17.10;;
69765;SDS011;57039;48.014;21.384;2022-12-10T05:37:47;41.88;;;18.08;;
69765;SDS011;57039;48.014;21.384;2022-12-10T05:38:50;33.67;;;14.63;;
69765;SDS011;57039;48.014;21.384;2022-12-10T05:39:54;39.77;;;16.70;;
69765;SDS011;57039;48.014;21.384;2022-12-10T05:41:03;45.13;;;17.77;;
69765;SDS011;57039;48.014;21.384;2022-12-10T05:42:16;36.08;;;15.55;;
69765;SDS011;57039;48.014;21.384;2022-12-10T05:43:20;40.08;;;16.35;;
69765;SDS011;57039;48.014;21.384;2022-12-10T05:44:23;35.35;;;16.10;;
69765;SDS011;57039;48.014;21.384;2022-12-10T05:45:26;39.05;;;18.10;;
69765;SDS011;57039;48.014;21.384;2022-12-10T05:46:29;51.08;;;18.98;;
69765;SDS011;57039;48.014;21.384;2022-12-10T05:47:33;59.42;;;20.52;;
69765;SDS011;57039;48.014;21.384;2022-12-10T05:48:37;44.92;;;20.42;;
69765;SDS011;57039;48.014;21.384;2022-12-10T05:49:40;55.63;;;21.55;;
69765;SDS011;57039;48.014;21.384;2022-12-10T05:50:43;54.80;;;21.17;;
69765;SDS011;57039;48.014;21.384;2022-12-10T05:51:46;54.50;;;23.23;;
69765;SDS011;57039;48.014;21.384;2022-12-10T05:52:50;53.38;;;19.35;;
69765;SDS011;57039;48.014;21.384;2022-12-10T05:53:56;45.55;;;18.27;;
69765;SDS011;57039;48.014;21.384;2022-12-10T05:54:59;40.97;;;17.67;;
69765;SDS011;57039;48.014;21.384;2022-12-10T05:56:03;47.75;;;17.77;;
69765;SDS011;57039;48.014;21.384;2022-12-10T05:57:08;36.90;;;15.95;;
69765;SDS011;57039;48.014;21.384;2022-12-10T05:58:11;53.90;;;21.62;;
69765;SDS011;57039;48.014;21.384;2022-12-10T05:59:14;42.80;;;18.77;;
69765;SDS011;57039;48.014;21.384;2022-12-10T06:00:18;39.08;;;14.90;;
69765;SDS011;57039;48.014;21.384;2022-12-10T06:01:25;39.50;;;17.23;;
69765;SDS011;57039;48.014;21.384;2022-12-10T06:02:32;46.17;;;19.60;;
69765;SDS011;57039;48.014;21.384;2022-12-10T06:03:45;47.92;;;18.15;;
69765;SDS011;57039;48.014;21.384;2022-12-10T06:04:48;36.75;;;17.85;;
69765;SDS011;57039;48.014;21.384;2022-12-10T06:05:54;43.13;;;16.98;;
69765;SDS011;57039;48.014;21.384;2022-12-10T06:07:00;35.80;;;16.02;;
69765;SDS011;57039;48.014;21.384;2022-12-10T06:08:12;38.60;;;16.33;;
69765;SDS011;57039;48.014;21.384;2022-12-10T06:09:15;37.53;;;17.77;;
69765;SDS011;57039;48.014;21.384;2022-12-10T06:10:18;42.40;;;18.40;;
69765;SDS011;57039;48.014;21.384;2022-12-10T06:11:21;39.25;;;18.52;;
69765;SDS011;57039;48.014;21.384;2022-12-10T06:12:25;44.60;;;18.63;;
69765;SDS011;57039;48.014;21.384;2022-12-10T06:13:28;34.93;;;16.60;;
69765;SDS011;57039;48.014;21.384;2022-12-10T06:14:30;35.35;;;16.67;;
69765;SDS011;57039;48.014;21.384;2022-12-10T06:15:33;43.28;;;17.87;;
69765;SDS011;57039;48.014;21.384;2022-12-10T06:16:36;39.35;;;16.50;;
69765;SDS011;57039;48.014;21.384;2022-12-10T06:17:44;40.40;;;18.75;;
69765;SDS011;57039;48.014;21.384;2022-12-10T06:18:46;35.40;;;16.10;;
69765;SDS011;57039;48.014;21.384;2022-12-10T06:19:50;48.97;;;20.08;;
69765;SDS011;57039;48.014;21.384;2022-12-10T06:20:53;32.58;;;14.70;;
69765;SDS011;57039;48.014;21.384;2022-12-10T06:21:56;35.80;;;15.90;;
69765;SDS011;57039;48.014;21.384;2022-12-10T06:23:00;32.07;;;15.30;;
69765;SDS011;57039;48.014;21.384;2022-12-10T06:24:03;35.57;;;14.90;;
69765;SDS011;57039;48.014;21.384;2022-12-10T06:25:06;37.13;;;16.02;;
69765;SDS011;57039;48.014;21.384;2022-12-10T06:26:13;32.55;;;15.90;;
69765;SDS011;57039;48.014;21.384;2022-12-10T06:27:18;35.33;;;16.10;;
69765;SDS011;57039;48.014;21.384;2022-12-10T06:28:21;34.15;;;15.70;;
69765;SDS011;57039;48.014;21.384;2022-12-10T06:29:25;39.10;;;16.77;;
69765;SDS011;57039;48.014;21.384;2022-12-10T06:30:27;33.60;;;16.98;;
69765;SDS011;57039;48.014;21.384;2022-12-10T06:31:30;39.17;;;20.15;;
69765;SDS011;57039;48.014;21.384;2022-12-10T06:32:33;44.92;;;20.65;;
69765;SDS011;57039;48.014;21.384;2022-12-10T06:33:36;44.87;;;19.63;;
69765;SDS011;57039;48.014;21.384;2022-12-10T06:34:39;45.03;;;23.03;;